Time;durP1;ratioP1;P1;durP2;ratioP2;P2;SDS_P1;SDS_P2;PMS_P1;PMS_P2;Temp;Humidity;BMP_temperature;BMP_pressure;BME280_temperature;BME280_humidity;BME280_pressure;Samples;Min_cycle;Max_cycle;Signal;HPM_P1;HPM_P2
2023/03/16 00:01:37;;;;;;;9.75;8.13;;;;;;;3.49;87.86;101686.84;5052643;28;20036;-69
2023/03/16 00:04:02;;;;;;;10.43;7.97;;;;;;;3.56;87.55;101689.03;5052325;28;20029;-69
2023/03/16 00:06:28;;;;;;;13.40;8.55;;;;;;;3.57;87.30;101691.69;5051912;28;20048;-69
2023/03/16 00:08:57;;;;;;;11.80;8.13;;;;;;;3.60;86.98;101685.91;5052608;28;20476;-69
2023/03/16 00:11:26;;;;;;;9.55;7.47;;;;;;;3.63;86.75;101681.06;5052763;28;20028;-69
2023/03/16 00:13:51;;;;;;;8.77;7.63;;;;;;;3.62;86.79;101675.03;5052038;28;20392;-69
2023/03/16 00:16:16;;;;;;;10.98;8.13;;;;;;;3.64;87.00;101670.06;5052180;28;20096;-69
2023/03/16 00:18:42;;;;;;;14.90;8.48;;;;;;;3.64;86.71;101672.59;5052042;28;20029;-69
2023/03/16 00:21:07;;;;;;;10.40;7.88;;;;;;;3.64;86.65;101670.06;5052132;28;20033;-69
2023/03/16 00:23:34;;;;;;;11.45;7.68;;;;;;;3.63;86.71;101669.19;5052699;28;20017;-69
2023/03/16 00:26:02;;;;;;;10.53;8.37;;;;;;;3.64;87.22;101667.50;5051429;28;20476;-68
2023/03/16 00:28:33;;;;;;;11.35;7.70;;;;;;;3.63;87.11;101674.28;5052464;28;20278;-69
2023/03/16 00:31:03;;;;;;;13.65;8.45;;;;;;;3.62;87.35;101664.84;5052098;28;20036;-69
2023/03/16 00:33:28;;;;;;;11.82;8.32;;;;;;;3.63;86.84;101655.56;5051914;28;20025;-69
2023/03/16 00:36:00;;;;;;;11.35;8.13;;;;;;;3.62;88.00;101653.78;5052462;28;20017;-69
2023/03/16 00:38:27;;;;;;;12.13;8.43;;;;;;;3.63;87.40;101653.00;5052592;28;20388;-69
2023/03/16 00:40:52;;;;;;;11.40;8.10;;;;;;;3.65;87.68;101658.22;5051636;28;20029;-69
2023/03/16 00:43:18;;;;;;;10.02;7.85;;;;;;;3.62;88.05;101647.00;5052052;28;20090;-69
2023/03/16 00:45:44;;;;;;;13.40;8.77;;;;;;;3.61;87.72;101649.44;5052297;28;20548;-69
2023/03/16 00:48:10;;;;;;;13.38;8.20;;;;;;;3.60;87.79;101651.13;5051546;28;20029;-69
2023/03/16 00:50:36;;;;;;;11.60;8.55;;;;;;;3.61;87.71;101642.69;5052380;28;20035;-67
2023/03/16 00:53:01;;;;;;;10.88;8.30;;;;;;;3.61;88.08;101640.13;5051994;28;20025;-69
2023/03/16 00:55:27;;;;;;;11.05;8.32;;;;;;;3.60;88.36;101635.84;5051544;28;20025;-69
2023/03/16 00:57:53;;;;;;;12.10;7.97;;;;;;;3.58;88.02;101632.28;5052217;28;20017;-69
2023/03/16 01:00:20;;;;;;;11.43;7.80;;;;;;;3.58;88.22;101633.97;5052137;28;20492;-69
2023/03/16 01:02:45;;;;;;;11.50;8.07;;;;;;;3.58;88.40;101627.19;5051599;28;20112;-70
2023/03/16 01:05:12;;;;;;;10.43;7.85;;;;;;;3.58;88.31;101622.09;5055499;28;20109;-69
2023/03/16 01:07:38;;;;;;;11.38;7.93;;;;;;;3.57;88.50;101619.44;5055784;28;20045;-69
2023/03/16 01:10:04;;;;;;;11.00;8.15;;;;;;;3.55;88.81;101614.22;5054880;28;20079;-69
2023/03/16 01:12:30;;;;;;;11.35;8.82;;;;;;;3.55;88.81;101603.13;5055742;28;20437;-69
2023/03/16 01:14:55;;;;;;;11.18;8.20;;;;;;;3.56;88.80;101605.78;5055367;28;20052;-69
2023/03/16 01:17:21;;;;;;;11.98;7.90;;;;;;;3.58;89.16;101595.72;5055293;28;20025;-69
2023/03/16 01:19:47;;;;;;;10.70;8.15;;;;;;;3.56;89.14;101587.94;5055903;28;20354;-69
2023/03/16 01:22:13;;;;;;;14.52;8.02;;;;;;;3.56;89.15;101587.94;5054612;28;20033;-69
2023/03/16 01:24:40;;;;;;;12.15;7.60;;;;;;;3.57;88.92;101584.63;5055636;28;20032;-69
2023/03/16 01:27:06;;;;;;;10.20;7.85;;;;;;;3.57;88.78;101589.72;5055260;28;20471;-69
2023/03/16 01:29:32;;;;;;;13.38;8.52;;;;;;;3.56;88.94;101585.41;5054657;28;20021;-69
2023/03/16 01:31:58;;;;;;;9.65;7.65;;;;;;;3.55;89.13;101581.09;5055395;28;20032;-69
2023/03/16 01:34:23;;;;;;;12.45;7.85;;;;;;;3.57;89.52;101579.53;5055988;28;20099;-69
2023/03/16 01:36:49;;;;;;;10.90;7.70;;;;;;;3.58;89.05;101578.75;5054746;28;20028;-67
2023/03/16 01:39:15;;;;;;;11.48;7.57;;;;;;;3.58;89.18;101583.84;5054948;28;20461;-67
2023/03/16 01:41:42;;;;;;;11.35;8.32;;;;;;;3.57;89.75;101584.63;5055083;28;20151;-67
2023/03/16 01:44:17;;;;;;;11.30;8.10;;;;;;;3.57;89.70;101584.63;5054093;28;20052;-68
2023/03/16 01:46:43;;;;;;;11.00;8.05;;;;;;;3.56;90.14;101575.19;5054889;28;20515;-69
2023/03/16 01:49:11;;;;;;;10.52;8.43;;;;;;;3.55;90.27;101576.00;5054903;28;20025;-69
2023/03/16 01:51:44;;;;;;;10.90;8.30;;;;;;;3.55;90.50;101575.09;5054578;28;20059;-70
2023/03/16 01:54:20;;;;;;;10.73;8.02;;;;;;;3.55;90.41;101573.47;5054761;28;20389;-69
2023/03/16 01:56:54;;;;;;;10.03;8.43;;;;;;;3.52;90.53;101573.22;5055054;28;20040;-69
2023/03/16 01:59:23;;;;;;;11.02;8.20;;;;;;;3.52;90.35;101569.81;5054205;28;20029;-69
2023/03/16 02:01:50;;;;;;;10.95;8.50;;;;;;;3.51;90.82;101566.38;5054936;28;20183;-69
2023/03/16 02:04:33;;;;;;;10.47;8.47;;;;;;;3.52;90.55;101565.56;5053708;28;20112;-69
2023/03/16 02:06:58;;;;;;;9.75;8.05;;;;;;;3.49;90.56;101557.72;5054263;28;20295;-69
2023/03/16 02:09:25;;;;;;;15.00;8.63;;;;;;;3.49;91.21;101562.81;5054928;28;20029;-69
2023/03/16 02:11:52;;;;;;;10.18;8.27;;;;;;;3.49;91.22;101549.22;5054168;28;20036;-69
2023/03/16 02:14:17;;;;;;;11.25;8.45;;;;;;;3.52;91.41;101544.31;5054594;28;20029;-69
2023/03/16 02:16:43;;;;;;;10.95;8.75;;;;;;;3.52;91.12;101546.88;5054233;28;20123;-67
2023/03/16 02:19:23;;;;;;;11.98;8.93;;;;;;;3.51;91.84;101548.53;5053589;28;20025;-67
2023/03/16 02:22:01;;;;;;;14.15;8.70;;;;;;;3.49;91.74;101544.97;5054479;28;20380;-68
2023/03/16 02:24:26;;;;;;;12.38;9.38;;;;;;;3.50;91.91;101536.56;5054701;28;20024;-69
2023/03/16 02:26:58;;;;;;;10.38;8.30;;;;;;;3.50;91.99;101535.66;5053715;28;20127;-69
2023/03/16 02:29:48;;;;;;;11.18;8.52;;;;;;;3.52;91.48;101540.09;5054414;28;20032;-69
2023/03/16 02:32:15;;;;;;;11.15;8.70;;;;;;;3.47;92.44;101541.44;5054002;28;20423;-69
2023/03/16 02:34:41;;;;;;;13.20;9.63;;;;;;;3.43;93.86;101544.56;5053725;28;20029;-69
2023/03/16 02:37:08;;;;;;;13.02;9.50;;;;;;;3.40;94.52;101540.13;5054079;28;20025;-69
2023/03/16 02:39:33;;;;;;;11.55;9.48;;;;;;;3.35;95.06;101523.63;5053872;28;20028;-69
2023/03/16 02:42:00;;;;;;;14.18;9.55;;;;;;;3.33;95.72;101537.03;5053803;28;20036;-70
2023/03/16 02:44:32;;;;;;;11.57;9.00;;;;;;;3.29;96.40;101544.47;5054140;28;20029;-69
2023/03/16 02:47:02;;;;;;;11.30;9.10;;;;;;;3.28;96.76;101536.75;5053018;28;20476;-69
2023/03/16 02:49:37;;;;;;;11.50;9.35;;;;;;;3.31;96.22;101543.72;5054191;28;20109;-69
2023/03/16 02:52:04;;;;;;;13.45;9.70;;;;;;;3.26;96.56;101534.06;5053672;28;20036;-70
2023/03/16 02:54:30;;;;;;;12.23;9.27;;;;;;;3.29;96.59;101535.94;5053135;28;20025;-70
2023/03/16 02:56:55;;;;;;;11.05;8.68;;;;;;;3.28;96.69;101529.97;5053563;28;20040;-70
2023/03/16 02:59:20;;;;;;;13.57;9.23;;;;;;;3.29;96.67;101531.75;5053871;28;20029;-70
2023/03/16 03:01:46;;;;;;;12.65;9.32;;;;;;;3.27;96.52;101528.19;5053131;28;20113;-69
2023/03/16 03:04:12;;;;;;;11.27;9.05;;;;;;;3.29;97.82;101525.75;5053591;28;20029;-69
2023/03/16 03:06:37;;;;;;;11.60;9.02;;;;;;;3.27;97.27;101522.22;5053598;28;20497;-69
2023/03/16 03:09:03;;;;;;;14.75;9.68;;;;;;;3.27;97.44;101517.13;5052512;28;20025;-70
2023/03/16 03:11:29;;;;;;;14.10;9.32;;;;;;;3.25;97.79;101529.78;5053520;28;20420;-68
2023/03/16 03:13:54;;;;;;;11.30;9.27;;;;;;;3.24;97.52;101522.91;5053294;28;20025;-69
2023/03/16 03:16:20;;;;;;;12.70;9.10;;;;;;;3.24;98.25;101520.34;5052955;28;20066;-69
2023/03/16 03:18:46;;;;;;;14.52;8.80;;;;;;;3.23;98.18;101516.03;5053492;28;20036;-70
2023/03/16 03:21:11;;;;;;;13.32;8.55;;;;;;;3.25;98.48;101518.66;5053113;28;20111;-69
2023/03/16 03:23:36;;;;;;;10.88;8.15;;;;;;;3.24;97.77;101512.72;5052640;28;20077;-69
2023/03/16 03:26:03;;;;;;;11.43;8.52;;;;;;;3.24;98.53;101507.63;5052747;28;20376;-70
2023/03/16 03:28:29;;;;;;;12.35;9.05;;;;;;;3.23;98.20;101500.75;5052646;28;20029;-68
2023/03/16 03:30:55;;;;;;;15.15;9.07;;;;;;;3.23;98.74;101508.38;5052379;28;20032;-68
2023/03/16 03:33:23;;;;;;;13.38;8.65;;;;;;;3.23;98.28;101497.31;5053342;28;20025;-68
2023/03/16 03:35:56;;;;;;;12.48;8.45;;;;;;;3.21;98.12;101509.06;5052660;28;20032;-68
2023/03/16 03:38:22;;;;;;;15.23;8.30;;;;;;;3.20;98.30;101503.09;5053159;28;20021;-68
2023/03/16 03:40:50;;;;;;;11.38;8.13;;;;;;;3.21;97.88;101506.50;5053061;28;20376;-68
2023/03/16 03:43:15;;;;;;;13.77;9.00;;;;;;;3.22;97.83;101493.88;5052036;28;20068;-68
2023/03/16 03:45:40;;;;;;;12.18;8.30;;;;;;;3.19;98.00;101500.41;5053147;28;20470;-68
2023/03/16 03:48:06;;;;;;;10.73;8.38;;;;;;;3.19;98.28;101496.22;5052696;28;20108;-68
2023/03/16 03:50:31;;;;;;;11.45;8.63;;;;;;;3.20;98.15;101503.09;5052246;28;20025;-68
2023/03/16 03:52:56;;;;;;;11.88;8.82;;;;;;;3.20;97.13;101502.19;5052584;28;20017;-68
2023/03/16 03:55:21;;;;;;;14.82;8.57;;;;;;;3.21;97.59;101506.50;5052869;28;20492;-68
2023/03/16 03:57:47;;;;;;;11.93;8.70;;;;;;;3.20;97.54;101497.09;5052084;28;20033;-68
2023/03/16 04:00:12;;;;;;;10.43;8.07;;;;;;;3.21;97.33;101497.19;5052611;28;20029;-68
2023/03/16 04:02:38;;;;;;;12.93;8.38;;;;;;;3.22;96.91;101496.41;5052701;28;20039;-68
2023/03/16 04:05:05;;;;;;;9.98;8.35;;;;;;;3.23;97.31;101487.13;5051808;28;20028;-68
2023/03/16 04:07:30;;;;;;;11.15;8.63;;;;;;;3.23;97.22;101488.00;5052588;28;20041;-68
2023/03/16 04:09:56;;;;;;;13.70;9.02;;;;;;;3.25;97.30;101478.81;5052329;28;20415;-68
2023/03/16 04:12:21;;;;;;;12.55;8.98;;;;;;;3.26;97.23;101484.78;5052085;28;20067;-67
2023/03/16 04:14:46;;;;;;;13.77;8.82;;;;;;;3.27;97.22;101476.38;5052913;28;20029;-67
2023/03/16 04:17:12;;;;;;;13.73;8.82;;;;;;;3.26;97.25;101480.56;5052426;28;20087;-67
2023/03/16 04:19:37;;;;;;;11.55;8.07;;;;;;;3.27;97.47;101473.81;5052241;28;20021;-67
2023/03/16 04:22:03;;;;;;;12.43;8.65;;;;;;;3.25;97.96;101476.28;5052350;28;20465;-69
2023/03/16 04:24:28;;;;;;;12.32;8.48;;;;;;;3.25;97.97;101476.28;5052631;28;20112;-67
2023/03/16 04:26:53;;;;;;;11.70;8.32;;;;;;;3.26;97.46;101478.00;5051933;28;20036;-67
2023/03/16 04:29:19;;;;;;;12.82;8.32;;;;;;;3.28;97.71;101473.91;5052645;28;20035;-67
2023/03/16 04:31:45;;;;;;;13.95;9.23;;;;;;;3.28;97.95;101479.03;5052662;28;20049;-67
2023/03/16 04:34:11;;;;;;;12.55;8.38;;;;;;;3.29;97.20;101470.59;5051553;28;20497;-67
2023/03/16 04:36:37;;;;;;;11.50;8.10;;;;;;;3.32;97.32;101469.03;5052483;28;20047;-67
2023/03/16 04:39:03;;;;;;;9.20;7.63;;;;;;;3.33;96.98;101471.72;5053362;28;20143;-68
2023/03/16 04:41:29;;;;;;;11.38;7.63;;;;;;;3.35;96.66;101469.25;5056600;28;20033;-67
2023/03/16 04:43:56;;;;;;;10.23;7.45;;;;;;;3.37;96.43;101458.38;5056465;28;20366;-68
2023/03/16 04:46:22;;;;;;;10.77;7.00;;;;;;;3.40;96.69;101458.59;5055857;28;20025;-67
2023/03/16 04:48:47;;;;;;;11.23;7.82;;;;;;;3.42;96.45;101466.34;5056457;28;20021;-67
2023/03/16 04:51:13;;;;;;;12.00;7.60;;;;;;;3.43;96.20;101463.91;5056072;28;20113;-67
2023/03/16 04:53:38;;;;;;;13.82;7.70;;;;;;;3.42;96.08;101462.13;5055518;28;20057;-67
2023/03/16 04:56:06;;;;;;;12.93;7.30;;;;;;;3.45;96.44;101469.09;5056167;28;20075;-68
2023/03/16 04:58:31;;;;;;;12.52;7.45;;;;;;;3.45;96.64;101466.56;5056416;28;20027;-67
2023/03/16 05:00:57;;;;;;;9.07;6.82;;;;;;;3.43;96.77;101463.00;5055082;28;20104;-68
2023/03/16 05:03:22;;;;;;;10.57;7.22;;;;;;;3.41;97.18;101455.25;5056055;28;20024;-68
2023/03/16 05:05:48;;;;;;;12.25;7.03;;;;;;;3.39;97.03;101463.59;5056158;28;20063;-68
2023/03/16 05:08:14;;;;;;;10.40;7.65;;;;;;;3.39;97.76;101455.94;5054672;28;20048;-67
2023/03/16 05:10:39;;;;;;;13.45;7.93;;;;;;;3.36;98.44;101456.63;5056225;28;20368;-67
2023/03/16 05:13:05;;;;;;;10.32;6.93;;;;;;;3.36;98.78;101460.84;5055684;28;20024;-67
2023/03/16 05:15:32;;;;;;;12.90;8.02;;;;;;;3.33;98.88;101455.50;5055368;28;20040;-67
2023/03/16 05:17:57;;;;;;;12.38;8.00;;;;;;;3.32;99.69;101456.28;5055601;28;20021;-70
2023/03/16 05:20:23;;;;;;;14.77;7.30;;;;;;;3.31;100.00;101446.91;5055844;28;20381;-67
2023/03/16 05:22:49;;;;;;;12.55;7.75;;;;;;;3.27;99.68;101446.66;5054987;28;20111;-68
2023/03/16 05:25:16;;;;;;;12.82;8.00;;;;;;;3.31;100.00;101444.34;5055503;28;20037;-68
2023/03/16 05:27:46;;;;;;;11.15;7.20;;;;;;;3.29;100.00;101444.22;5055932;28;20036;-69
2023/03/16 05:30:15;;;;;;;11.07;7.53;;;;;;;3.32;99.92;101441.91;5054377;28;20350;-68
2023/03/16 05:32:40;;;;;;;10.60;7.07;;;;;;;3.31;99.53;101440.13;5055558;28;20029;-68
2023/03/16 05:35:06;;;;;;;13.45;7.45;;;;;;;3.34;100.00;101444.56;5055179;28;20476;-69
2023/03/16 05:37:32;;;;;;;11.75;6.97;;;;;;;3.35;99.89;101443.78;5054966;28;20052;-68
2023/03/16 05:39:57;;;;;;;9.05;6.78;;;;;;;3.35;100.00;101441.22;5055308;28;20029;-68
2023/03/16 05:42:25;;;;;;;11.05;7.30;;;;;;;3.37;100.00;101439.66;5054828;28;20366;-68
2023/03/16 05:44:51;;;;;;;9.23;6.55;;;;;;;3.38;99.74;101428.69;5055537;28;20021;-68
2023/03/16 05:47:17;;;;;;;11.23;7.00;;;;;;;3.39;100.00;101426.22;5054910;28;20078;-68
2023/03/16 05:49:42;;;;;;;12.50;7.07;;;;;;;3.41;99.93;101423.81;5053850;28;20025;-68
2023/03/16 05:52:07;;;;;;;10.98;7.32;;;;;;;3.40;100.00;101422.03;5054459;28;20020;-68
2023/03/16 05:54:33;;;;;;;12.75;7.28;;;;;;;3.41;100.00;101424.69;5055414;28;20144;-69
2023/03/16 05:56:58;;;;;;;13.18;7.20;;;;;;;3.39;100.00;101416.03;5054081;28;20021;-69
2023/03/16 05:59:23;;;;;;;13.18;7.45;;;;;;;3.41;100.00;101421.28;5055267;28;20492;-68
2023/03/16 06:01:49;;;;;;;10.98;7.05;;;;;;;3.41;100.00;101418.72;5054926;28;20075;-68
2023/03/16 06:04:14;;;;;;;10.95;7.35;;;;;;;3.40;100.00;101412.72;5053767;28;20091;-68
2023/03/16 06:06:40;;;;;;;12.90;7.63;;;;;;;3.40;100.00;101419.50;5054588;28;20056;-68
2023/03/16 06:09:05;;;;;;;12.43;7.85;;;;;;;3.41;100.00;101414.50;5054481;28;20024;-69
2023/03/16 06:11:31;;;;;;;12.32;8.23;;;;;;;3.42;100.00;101410.28;5054100;28;20033;-68
2023/03/16 06:13:57;;;;;;;11.65;8.10;;;;;;;3.41;100.00;101411.94;5054458;28;20057;-68
2023/03/16 06:16:23;;;;;;;12.20;7.75;;;;;;;3.45;100.00;101419.00;5054640;28;20025;-68
2023/03/16 06:18:51;;;;;;;11.20;7.47;;;;;;;3.45;100.00;101415.59;5053781;28;20033;-69
2023/03/16 06:21:16;;;;;;;10.75;7.60;;;;;;;3.48;100.00;101417.47;5054385;28;20033;-68
2023/03/16 06:23:42;;;;;;;15.00;8.60;;;;;;;3.46;100.00;101419.91;5054438;28;20031;-68
2023/03/16 06:26:07;;;;;;;9.77;7.20;;;;;;;3.48;100.00;101423.44;5053319;28;20017;-68
2023/03/16 06:28:33;;;;;;;11.75;7.68;;;;;;;3.51;100.00;101413.47;5054520;28;20032;-68
2023/03/16 06:30:58;;;;;;;14.27;8.13;;;;;;;3.53;100.00;101409.34;5053979;28;20389;-68
2023/03/16 06:33:23;;;;;;;17.33;8.05;;;;;;;3.55;100.00;101412.88;5053558;28;20025;-70
2023/03/16 06:35:50;;;;;;;12.68;8.20;;;;;;;3.58;100.00;101418.19;5054089;28;20029;-69
2023/03/16 06:38:15;;;;;;;14.25;8.45;;;;;;;3.58;100.00;101413.06;5054260;28;20049;-68
2023/03/16 06:40:41;;;;;;;12.98;7.95;;;;;;;3.58;100.00;101407.09;5053676;28;20108;-68
2023/03/16 06:43:06;;;;;;;12.07;7.60;;;;;;;3.59;100.00;101411.41;5053608;28;20064;-69
2023/03/16 06:45:32;;;;;;;19.05;8.75;;;;;;;3.60;100.00;101416.63;5053606;28;20025;-69
2023/03/16 06:47:57;;;;;;;13.40;8.15;;;;;;;3.63;100.00;101415.94;5053675;28;20048;-69
2023/03/16 06:50:23;;;;;;;15.55;8.10;;;;;;;3.62;100.00;101404.84;5053998;28;20036;-68
2023/03/16 06:52:48;;;;;;;12.82;8.10;;;;;;;3.65;100.00;101405.84;5053150;28;20389;-68
2023/03/16 06:55:13;;;;;;;15.07;8.65;;;;;;;3.67;100.00;101404.25;5053720;28;20138;-69
2023/03/16 06:57:40;;;;;;;12.85;7.82;;;;;;;3.70;100.00;101396.84;5054061;28;20021;-68
2023/03/16 07:00:07;;;;;;;14.13;8.02;;;;;;;3.73;100.00;101405.59;5052806;28;20091;-68
2023/03/16 07:02:34;;;;;;;12.37;8.17;;;;;;;3.75;100.00;101411.66;5053663;28;20033;-69
2023/03/16 07:05:00;;;;;;;15.67;7.27;;;;;;;3.82;100.00;101407.81;5053234;28;20465;-69
2023/03/16 07:07:26;;;;;;;12.00;7.32;;;;;;;3.86;100.00;101404.72;5052715;28;20102;-68
2023/03/16 07:09:51;;;;;;;13.70;7.85;;;;;;;3.91;100.00;101398.25;5053854;28;20104;-68
2023/03/16 07:12:17;;;;;;;12.40;7.55;;;;;;;3.94;100.00;101393.34;5053368;28;20500;-69
2023/03/16 07:14:42;;;;;;;14.45;8.43;;;;;;;3.98;100.00;101389.34;5052767;28;20467;-68
2023/03/16 07:17:08;;;;;;;14.23;7.43;;;;;;;4.02;100.00;101386.19;5053198;28;20113;-69
2023/03/16 07:19:33;;;;;;;14.05;7.97;;;;;;;4.04;100.00;101392.28;5053409;28;20021;-69
2023/03/16 07:21:58;;;;;;;12.40;7.63;;;;;;;4.08;100.00;101391.69;5052433;28;20110;-69
2023/03/16 07:24:24;;;;;;;11.70;6.97;;;;;;;4.11;100.00;101385.91;5053576;28;20028;-69
2023/03/16 07:26:49;;;;;;;10.98;7.45;;;;;;;4.16;100.00;101389.63;5053178;28;20384;-69
2023/03/16 07:29:15;;;;;;;13.98;7.65;;;;;;;4.21;100.00;101388.25;5052246;28;20033;-69
2023/03/16 07:31:41;;;;;;;13.68;7.43;;;;;;;4.28;100.00;101382.75;5053278;28;20036;-69
2023/03/16 07:34:07;;;;;;;11.25;7.25;;;;;;;4.34;100.00;101386.47;5052710;28;20017;-68
2023/03/16 07:36:32;;;;;;;12.68;7.57;;;;;;;4.40;100.00;101386.88;5052347;28;20032;-68
2023/03/16 07:38:57;;;;;;;11.88;7.20;;;;;;;4.44;99.59;101376.06;5052889;28;20082;-69
2023/03/16 07:41:24;;;;;;;10.15;6.40;;;;;;;4.48;98.51;101380.59;5053139;28;20025;-69
2023/03/16 07:43:49;;;;;;;11.07;6.93;;;;;;;4.51;98.25;101379.91;5052425;28;20032;-69
2023/03/16 07:46:15;;;;;;;12.57;6.47;;;;;;;4.53;98.50;101379.22;5052746;28;20025;-69
2023/03/16 07:48:41;;;;;;;13.00;7.10;;;;;;;4.56;98.71;101387.06;5052981;28;20021;-69
2023/03/16 07:51:08;;;;;;;12.88;7.03;;;;;;;4.61;98.27;101388.22;5051995;28;20041;-69
2023/03/16 07:53:33;;;;;;;9.63;6.57;;;;;;;4.66;96.55;101382.50;5053025;28;20025;-69
2023/03/16 07:56:00;;;;;;;9.75;6.40;;;;;;;4.68;96.29;101388.63;5051883;28;20028;-70
2023/03/16 07:58:25;;;;;;;11.80;7.07;;;;;;;4.70;96.63;101371.69;5052705;28;20025;-69
2023/03/16 08:00:50;;;;;;;11.23;6.65;;;;;;;4.74;96.80;101381.34;5052840;28;20125;-69
2023/03/16 08:03:16;;;;;;;14.48;6.90;;;;;;;4.75;96.21;101373.78;5051700;28;20027;-68
2023/03/16 08:05:41;;;;;;;12.43;6.53;;;;;;;4.78;95.00;101373.94;5052937;28;20029;-69
2023/03/16 08:08:08;;;;;;;12.55;7.18;;;;;;;4.86;96.51;101387.19;5052318;28;20068;-69
2023/03/16 08:10:34;;;;;;;10.57;6.90;;;;;;;4.90;94.62;101378.03;5052142;28;20365;-69
2023/03/16 08:13:01;;;;;;;13.88;7.53;;;;;;;4.96;93.41;101378.44;5051930;28;20279;-69
2023/03/16 08:15:26;;;;;;;13.67;6.87;;;;;;;5.01;91.91;101377.03;5052611;28;20396;-69
2023/03/16 08:17:52;;;;;;;12.85;7.93;;;;;;;5.08;92.54;101375.72;5051796;28;20036;-69
2023/03/16 08:20:18;;;;;;;13.50;7.60;;;;;;;5.18;91.50;101380.59;5052651;28;20038;-68
2023/03/16 08:22:45;;;;;;;11.13;7.38;;;;;;;5.28;91.65;101382.91;5052625;28;20029;-68
2023/03/16 08:25:11;;;;;;;10.50;6.95;;;;;;;5.34;89.86;101378.97;5051757;28;20029;-68
2023/03/16 08:27:37;;;;;;;11.55;6.85;;;;;;;5.40;89.78;101377.63;5052643;28;20122;-68
2023/03/16 08:30:10;;;;;;;12.50;6.80;;;;;;;5.44;88.62;101383.81;5052195;28;20036;-69
2023/03/16 08:32:36;;;;;;;12.80;6.70;;;;;;;5.48;87.39;101392.56;5051832;28;20029;-69
2023/03/16 08:35:02;;;;;;;12.20;7.35;;;;;;;5.52;88.31;101387.69;5051989;28;20488;-68
2023/03/16 08:37:27;;;;;;;14.27;7.70;;;;;;;5.59;88.12;101389.84;5052865;28;20025;-69
2023/03/16 08:39:53;;;;;;;11.63;7.05;;;;;;;5.72;87.14;101394.00;5051637;28;20107;-69
2023/03/16 08:42:19;;;;;;;15.02;7.10;;;;;;;5.76;86.21;101387.38;5052224;28;20029;-68
2023/03/16 08:44:46;;;;;;;15.07;7.70;;;;;;;5.82;85.72;101382.59;5052303;28;20083;-69
2023/03/16 08:47:13;;;;;;;16.55;7.60;;;;;;;5.89;86.08;101384.72;5051495;28;20097;-69
2023/03/16 08:49:38;;;;;;;11.70;6.82;;;;;;;5.94;84.10;101388.44;5052472;28;20028;-68
2023/03/16 08:52:04;;;;;;;11.52;6.88;;;;;;;6.08;83.79;101390.91;5052101;28;20389;-69
2023/03/16 08:54:31;;;;;;;10.25;7.00;;;;;;;6.16;83.47;101384.56;5051429;28;20373;-69
2023/03/16 08:56:56;;;;;;;9.90;6.90;;;;;;;6.31;83.89;101373.41;5052006;28;20049;-69
2023/03/16 08:59:22;;;;;;;11.43;7.20;;;;;;;6.32;82.11;101370.06;5051466;28;20059;-69
2023/03/16 09:01:47;;;;;;;13.05;6.78;;;;;;;6.36;82.42;101362.63;5052049;28;20036;-69
2023/03/16 09:04:13;;;;;;;11.25;6.80;;;;;;;6.32;81.72;101365.81;5051965;28;20021;-69
2023/03/16 09:06:39;;;;;;;10.10;6.65;;;;;;;6.36;82.50;101364.31;5051362;28;20065;-69
2023/03/16 09:09:04;;;;;;;10.95;6.95;;;;;;;6.39;82.27;101362.81;5051844;28;20025;-69
2023/03/16 09:11:32;;;;;;;10.75;6.25;;;;;;;6.42;80.54;101357.84;5052066;28;20132;-69
2023/03/16 09:13:59;;;;;;;11.95;6.45;;;;;;;6.57;80.67;101352.69;5050836;28;20029;-69
2023/03/16 09:16:24;;;;;;;11.13;6.15;;;;;;;6.67;79.68;101355.72;5052272;28;20021;-69
2023/03/16 09:18:51;;;;;;;9.73;6.38;;;;;;;6.75;78.73;101357.91;5052204;28;20023;-68
2023/03/16 09:21:17;;;;;;;11.57;6.65;;;;;;;6.92;78.79;101356.22;5050964;28;20025;-69
2023/03/16 09:23:42;;;;;;;12.40;6.05;;;;;;;6.95;77.87;101354.66;5052077;28;20025;-69
2023/03/16 09:26:11;;;;;;;9.07;6.00;;;;;;;7.04;77.29;101355.13;5053500;28;20432;-69
2023/03/16 09:28:39;;;;;;;12.40;6.57;;;;;;;7.17;76.84;101352.38;5054708;28;20027;-68
2023/03/16 09:31:06;;;;;;;11.30;5.88;;;;;;;7.22;75.50;101355.19;5055453;28;20025;-69
2023/03/16 09:33:33;;;;;;;12.68;5.93;;;;;;;7.27;73.95;101350.28;5055588;28;20029;-68
2023/03/16 09:35:58;;;;;;;10.00;6.00;;;;;;;7.40;73.36;101350.13;5054336;28;20483;-68
2023/03/16 09:38:27;;;;;;;9.80;5.50;;;;;;;7.53;73.26;101346.50;5055443;28;20025;-69
2023/03/16 09:41:05;;;;;;;9.57;5.10;;;;;;;7.63;72.12;101348.72;5055277;28;20369;-68
2023/03/16 09:43:35;;;;;;;10.55;5.18;;;;;;;7.65;71.52;101349.66;5054466;28;20376;-68
2023/03/16 09:46:19;;;;;;;10.30;5.50;;;;;;;7.75;70.94;101344.16;5055337;28;20032;-68
2023/03/16 09:48:46;;;;;;;13.43;5.13;;;;;;;7.79;70.12;101347.78;5054620;28;20031;-65
2023/03/16 09:51:38;;;;;;;9.77;4.88;;;;;;;7.91;71.09;101352.59;5054971;28;20068;-65
2023/03/16 09:54:16;;;;;;;9.30;4.95;;;;;;;8.07;70.15;101341.41;5051591;28;20037;-65
2023/03/16 09:56:43;;;;;;;9.27;5.05;;;;;;;8.30;69.25;101341.59;5054491;28;20078;-66
2023/03/16 09:59:12;;;;;;;11.45;5.15;;;;;;;8.46;68.55;101341.53;5054676;28;20031;-66
2023/03/16 10:01:37;;;;;;;10.63;4.95;;;;;;;8.62;66.30;101337.09;5054902;28;20091;-65
2023/03/16 10:04:21;;;;;;;9.03;4.77;;;;;;;8.81;64.89;101319.13;5053698;28;20473;-65
2023/03/16 10:07:23;;;;;;;7.97;4.18;;;;;;;8.88;64.89;101325.41;5054795;28;20305;-65
2023/03/16 10:09:53;;;;;;;10.13;4.40;;;;;;;8.70;64.58;101325.47;5047227;28;20041;-65
2023/03/16 10:12:22;;;;;;;9.30;4.35;;;;;;;8.86;64.62;101321.91;5054486;28;20029;-64
2023/03/16 10:15:03;;;;;;;8.65;4.35;;;;;;;9.17;63.34;101318.97;5054715;28;20017;-65
2023/03/16 10:17:37;;;;;;;6.97;3.60;;;;;;;9.26;59.73;101308.22;5054044;28;20067;-65
2023/03/16 10:20:09;;;;;;;8.20;4.28;;;;;;;9.88;60.99;101311.59;5054419;28;20036;-65
2023/03/16 10:22:41;;;;;;;7.15;3.72;;;;;;;10.25;58.08;101307.03;5054579;28;20029;-64
2023/03/16 10:25:18;;;;;;;7.90;4.03;;;;;;;10.82;56.95;101301.41;5053683;28;20025;-64
2023/03/16 10:27:44;;;;;;;9.43;3.47;;;;;;;11.01;53.04;101302.94;5054436;28;20033;-64
2023/03/16 10:30:32;;;;;;;8.85;3.70;;;;;;;10.81;54.11;101299.66;5054180;28;20033;-65
2023/03/16 10:33:32;;;;;;;9.73;3.42;;;;;;;10.65;54.65;101294.75;5053473;28;20021;-66
2023/03/16 10:36:12;;;;;;;7.32;3.58;;;;;;;10.65;55.50;101303.38;5053168;28;20451;-65
2023/03/16 10:38:45;;;;;;;6.18;3.20;;;;;;;10.89;53.98;101306.78;5053574;28;20086;-65
2023/03/16 10:41:16;;;;;;;6.20;3.22;;;;;;;11.24;53.26;101304.56;5053932;28;20032;-65
2023/03/16 10:43:48;;;;;;;7.25;3.50;;;;;;;11.51;52.79;101304.63;5054119;28;20029;-65
2023/03/16 10:46:13;;;;;;;8.45;3.10;;;;;;;11.47;50.87;101293.31;5053228;28;20115;-65
2023/03/16 10:48:39;;;;;;;5.75;3.25;;;;;;;11.77;51.41;101287.38;5054140;28;20112;-65
2023/03/16 10:51:11;;;;;;;4.55;2.70;;;;;;;11.93;51.04;101287.84;5053517;28;20023;-65
2023/03/16 10:53:41;;;;;;;7.82;3.70;;;;;;;12.38;49.70;101287.50;5053735;28;20044;-65
2023/03/16 10:56:12;;;;;;;8.77;3.22;;;;;;;12.23;48.08;101284.50;5053396;28;20021;-64
2023/03/16 10:58:41;;;;;;;7.82;3.15;;;;;;;12.26;48.49;101282.88;5054054;28;20035;-65
2023/03/16 11:01:27;;;;;;;4.43;2.60;;;;;;;12.06;48.97;101284.88;5053067;28;20127;-65
2023/03/16 11:03:56;;;;;;;7.20;2.92;;;;;;;12.06;49.09;101274.53;5053852;28;20033;-65
2023/03/16 11:06:29;;;;;;;5.45;2.83;;;;;;;11.73;47.83;101275.19;5052780;28;20381;-65
2023/03/16 11:09:04;;;;;;;6.60;2.65;;;;;;;11.57;49.88;101267.78;5053570;28;20061;-65
2023/03/16 11:11:31;;;;;;;7.50;3.33;;;;;;;11.49;49.37;101259.78;5053712;28;20090;-65
2023/03/16 11:13:58;;;;;;;8.95;2.90;;;;;;;11.49;49.19;101260.69;5052621;28;20025;-66
2023/03/16 11:16:49;;;;;;;6.30;2.70;;;;;;;11.82;50.12;101259.13;5053430;28;20453;-65
2023/03/16 11:19:33;;;;;;;9.68;2.97;;;;;;;11.90;49.16;101254.19;5053050;28;20029;-65
2023/03/16 11:22:12;;;;;;;8.73;2.83;;;;;;;11.83;49.26;101247.97;5052543;28;20028;-65
2023/03/16 11:25:03;;;;;;;5.97;2.58;;;;;;;11.88;49.57;101245.50;5053556;28;20487;-66
2023/03/16 11:27:44;;;;;;;8.38;2.88;;;;;;;11.65;48.87;101245.69;5052778;28;20068;-65